Time;durP1;ratioP1;P1;durP2;ratioP2;P2;SDS_P1;SDS_P2;PMS_P1;PMS_P2;Temp;Humidity;BMP_temperature;BMP_pressure;BME280_temperature;BME280_humidity;BME280_pressure;Samples;Min_cycle;Max_cycle;Signal;HPM_P1;HPM_P2
2022/04/22 00:00:04;;;;;;;;;4.00;3.00;;;;;17.36;31.79;99898.41;4982302;28;46254;-53
2022/04/22 00:02:29;;;;;;;;;2.00;2.00;;;;;17.37;31.76;99897.47;4981000;28;45902;-53
2022/04/22 00:04:55;;;;;;;;;5.75;5.75;;;;;17.34;31.38;99894.13;4982509;28;45658;-51
2022/04/22 00:07:20;;;;;;;;;3.00;3.00;;;;;17.30;31.71;99887.28;4982146;28;45551;-52
2022/04/22 00:09:45;;;;;;;;;3.00;3.00;;;;;17.27;31.54;99890.97;4982301;28;45965;-52
2022/04/22 00:12:11;;;;;;;;;5.25;5.25;;;;;17.25;31.80;99892.00;4982428;28;45176;-53
2022/04/22 00:14:36;;;;;;;;;6.25;3.25;;;;;17.20;31.54;99893.06;4982327;28;45762;-53
2022/04/22 00:17:02;;;;;;;;;3.00;3.00;;;;;17.16;31.91;99890.69;4982220;28;45512;-53
2022/04/22 00:19:27;;;;;;;;;5.75;4.00;;;;;17.13;31.67;99890.84;4982271;28;46267;-52
2022/04/22 00:21:53;;;;;;;;;4.00;3.50;;;;;17.10;32.07;99885.72;4981953;28;45311;-51
2022/04/22 00:24:19;;;;;;;;;2.75;2.50;;;;;17.06;31.99;99888.53;4982277;28;45315;-53
2022/04/22 00:26:45;;;;;;;;;5.25;5.00;;;;;17.01;32.22;99872.00;4980784;28;45472;-52
2022/04/22 00:29:11;;;;;;;;;3.25;2.50;;;;;17.01;32.24;99884.44;4981813;28;45310;-54
2022/04/22 00:31:36;;;;;;;;;2.75;2.75;;;;;16.98;32.00;99879.28;4981174;28;45483;-52
2022/04/22 00:34:02;;;;;;;;;4.00;4.00;;;;;16.93;32.45;99873.38;4982037;28;45152;-52
2022/04/22 00:36:27;;;;;;;;;3.50;3.50;;;;;16.92;32.13;99877.81;4981745;28;45258;-51
2022/04/22 00:38:52;;;;;;;;;4.75;4.75;;;;;16.92;32.13;99877.81;4981900;28;45235;-49
2022/04/22 00:41:18;;;;;;;;;4.00;3.25;;;;;16.87;32.29;99866.56;4981608;28;45144;-52
2022/04/22 00:43:46;;;;;;;;;3.25;3.25;;;;;16.84;32.26;99872.03;4982178;28;45215;-51
2022/04/22 00:46:12;;;;;;;;;6.50;2.00;;;;;16.82;32.64;99868.63;4980366;28;45439;-52
2022/04/22 00:48:37;;;;;;;;;4.75;4.00;;;;;16.79;32.34;99874.09;4981579;28;45396;-51
2022/04/22 00:51:04;;;;;;;;;4.00;4.00;;;;;16.77;32.68;99871.53;4980063;28;45334;-53
2022/04/22 00:53:35;;;;;;;;;4.25;4.25;;;;;16.72;32.50;99863.78;4981850;28;45316;-51
2022/04/22 00:56:04;;;;;;;;;4.00;3.00;;;;;16.72;32.63;99865.59;4980037;28;45598;-52
2022/04/22 00:58:29;;;;;;;;;3.75;3.75;;;;;16.65;32.69;99864.22;4981428;28;47093;-52
2022/04/22 01:00:55;;;;;;;;;3.50;3.50;;;;;16.66;32.80;99863.28;4981374;28;45293;-52
2022/04/22 01:03:20;;;;;;;;;3.50;3.50;;;;;16.64;32.69;99859.84;4981715;28;45270;-53
2022/04/22 01:11:17;;;;;;;;;4.00;3.25;;;;;16.55;32.94;99861.19;4981152;28;45542;-53
2022/04/22 01:13:43;;;;;;;;;4.50;4.50;;;;;16.54;32.65;99855.03;4981276;28;45329;-51
2022/04/22 01:16:09;;;;;;;;;5.25;4.25;;;;;16.52;32.97;99856.91;4960618;28;45547;-53
2022/04/22 01:18:34;;;;;;;;;3.75;3.75;;;;;16.47;33.02;99853.63;4976002;28;45354;-51
2022/04/22 01:21:00;;;;;;;;;6.00;4.75;;;;;16.47;33.06;99853.63;4979747;28;45227;-51
2022/04/22 01:23:26;;;;;;;;;5.00;5.00;;;;;16.44;32.86;99852.94;4980080;28;45354;-50
2022/04/22 01:25:53;;;;;;;;;3.25;3.00;;;;;16.42;33.14;99848.56;4980963;28;45482;-52
2022/04/22 01:28:18;;;;;;;;;4.00;3.00;;;;;16.40;33.09;99846.94;4981065;28;46370;-53
2022/04/22 01:30:44;;;;;;;;;4.00;3.25;;;;;16.37;32.98;99849.78;4980971;28;45247;-48
2022/04/22 01:33:09;;;;;;;;;4.25;4.25;;;;;16.34;33.02;99849.91;4980852;28;45378;-53
2022/04/22 01:35:35;;;;;;;;;6.75;6.00;;;;;16.31;33.08;99844.78;4980699;28;45305;-52
2022/04/22 01:38:00;;;;;;;;;3.25;1.75;;;;;16.27;33.35;99830.81;4979581;28;46079;-52
2022/04/22 01:40:25;;;;;;;;;4.00;3.50;;;;;16.23;33.06;99840.72;4980941;28;45328;-52
2022/04/22 01:42:51;;;;;;;;;3.00;3.00;;;;;16.22;33.44;99831.06;4979200;28;45356;-50
2022/04/22 01:45:16;;;;;;;;;7.50;6.75;;;;;16.21;33.47;99836.44;4979212;28;45392;-53
2022/04/22 01:47:41;;;;;;;;;5.00;3.00;;;;;16.17;33.18;99827.78;4979487;28;45327;-50
2022/04/22 01:50:07;;;;;;;;;3.00;3.00;;;;;16.15;33.19;99828.81;4980577;28;45256;-51
2022/04/22 01:52:34;;;;;;;;;3.75;3.00;;;;;16.13;33.27;99833.34;4979666;28;45248;-50
2022/04/22 01:54:59;;;;;;;;;6.25;5.00;;;;;16.11;33.75;99827.25;4980652;28;45327;-50
2022/04/22 01:57:25;;;;;;;;;4.00;4.00;;;;;16.07;33.38;99829.22;4980459;28;46117;-55
2022/04/22 01:59:50;;;;;;;;;4.50;4.00;;;;;16.04;33.46;99830.22;4980824;28;45293;-52
2022/04/22 02:02:16;;;;;;;;;5.00;5.00;;;;;16.01;33.99;99825.09;4980791;28;45291;-53
2022/04/22 02:04:42;;;;;;;;;4.00;4.00;;;;;15.99;33.83;99819.00;4980800;28;45315;-51
2022/04/22 02:07:08;;;;;;;;;5.75;5.00;;;;;15.92;34.04;99809.66;4980053;28;45957;-50
2022/04/22 02:09:34;;;;;;;;;3.50;3.50;;;;;15.91;33.65;99822.06;4980572;28;45392;-52
2022/04/22 02:11:59;;;;;;;;;4.25;3.00;;;;;15.92;34.11;99822.91;4980554;28;45366;-53
2022/04/22 02:14:25;;;;;;;;;6.25;6.25;;;;;15.89;33.91;99821.28;4980805;28;45436;-52
2022/04/22 02:16:52;;;;;;;;;5.25;5.25;;;;;15.85;34.19;99819.72;4980260;28;46044;-50
2022/04/22 02:19:18;;;;;;;;;4.50;3.25;;;;;15.84;33.76;99811.84;4980506;28;45202;-52
2022/04/22 02:21:43;;;;;;;;;3.25;3.25;;;;;15.81;33.91;99818.13;4980198;28;45275;-53
2022/04/22 02:24:09;;;;;;;;;6.00;6.00;;;;;15.76;34.10;99810.41;4980278;28;45215;-50
2022/04/22 02:28:31;;;;;;;;;3.25;3.25;;;;;15.78;33.94;99818.28;4980226;28;46106;-53
2022/04/22 02:29:20;;;;;;;;;5.00;5.00;;;;;15.75;34.04;99814.00;4980250;28;45452;-51
2022/04/22 02:31:46;;;;;;;;;7.00;5.75;;;;;15.73;33.84;99815.00;4979994;28;45305;-53
2022/04/22 02:34:12;;;;;;;;;4.25;4.25;;;;;15.70;33.86;99808.06;4980309;28;45597;-51
2022/04/22 02:36:37;;;;;;;;;3.50;3.50;;;;;15.68;34.02;99806.44;4979769;28;46157;-52
2022/04/22 02:39:03;;;;;;;;;4.00;4.00;;;;;15.65;34.05;99802.16;4980279;28;45469;-50
2022/04/22 02:47:04;;;;;;;;;4.75;4.75;;;;;15.54;34.44;99805.31;4964222;28;45468;-53
2022/04/22 02:49:29;;;;;;;;;7.00;4.25;;;;;15.53;34.54;99806.25;4979934;28;45237;-50
2022/04/22 02:51:55;;;;;;;;;6.25;6.25;;;;;15.49;34.42;99799.41;4978750;28;45781;-52
2022/04/22 02:54:20;;;;;;;;;5.50;4.50;;;;;15.45;34.64;99795.19;4979923;28;45169;-51
2022/04/22 02:56:46;;;;;;;;;6.00;5.25;;;;;15.44;34.79;99801.44;4983341;28;46136;-51
2022/04/22 02:59:11;;;;;;;;;6.00;5.25;;;;;15.42;34.42;99804.16;4983490;28;45431;-52
2022/04/22 03:01:37;;;;;;;;;6.00;5.00;;;;;15.41;34.56;99801.59;4983519;28;45480;-52
2022/04/22 03:04:05;;;;;;;;;5.50;5.50;;;;;15.38;34.69;99801.72;4983394;28;45310;-51
2022/04/22 03:06:30;;;;;;;;;5.00;5.00;;;;;15.34;34.81;99794.88;4982974;28;47143;-49
2022/04/22 03:08:55;;;;;;;;;5.00;5.00;;;;;15.33;34.95;99790.50;4983126;28;45333;-52
2022/04/22 03:11:22;;;;;;;;;4.00;4.00;;;;;15.29;34.61;99795.09;4982155;28;45320;-52
2022/04/22 03:13:53;;;;;;;;;5.00;5.00;;;;;15.27;34.55;99795.16;4983284;28;45365;-54
2022/04/22 03:16:20;;;;;;;;;4.00;4.00;;;;;15.23;34.64;99790.09;4983094;28;45343;-53
2022/04/22 03:18:46;;;;;;;;;5.25;5.00;;;;;15.22;34.74;99797.19;4982960;28;45336;-54
2022/04/22 03:21:11;;;;;;;;;4.75;3.25;;;;;15.20;35.08;99793.75;4982878;28;45200;-53
2022/04/22 03:23:37;;;;;;;;;4.50;4.50;;;;;15.16;34.85;99786.91;4982101;28;45275;-49
2022/04/22 03:26:02;;;;;;;;;8.50;7.25;;;;;15.15;35.06;99792.28;4973288;28;46336;-53
2022/04/22 03:28:28;;;;;;;;;3.75;3.75;;;;;15.12;35.38;99788.00;4982924;28;45247;-52
2022/04/22 03:30:53;;;;;;;;;3.75;3.75;;;;;15.10;35.13;99789.84;4982618;28;45408;-52
2022/04/22 03:33:19;;;;;;;;;6.25;5.50;;;;;15.07;34.85;99790.84;4981588;28;45574;-53
2022/04/22 03:35:51;;;;;;;;;6.75;5.75;;;;;15.05;34.88;99782.13;4982583;28;46191;-52
2022/04/22 03:38:19;;;;;;;;;6.25;6.25;;;;;15.00;35.33;99778.84;4982876;28;45235;-52
2022/04/22 03:40:53;;;;;;;;;5.75;5.00;;;;;14.99;35.30;99779.75;4982812;28;45340;-52
2022/04/22 03:43:20;;;;;;;;;4.00;3.25;;;;;14.96;35.45;99782.56;4982511;28;45247;-53
2022/04/22 03:45:45;;;;;;;;;5.25;5.00;;;;;14.94;35.01;99780.00;4982629;28;46463;-52
2022/04/22 03:48:13;;;;;;;;;5.00;4.00;;;;;14.92;35.09;99783.66;4982411;28;45322;-52
2022/04/22 03:50:39;;;;;;;;;5.25;5.25;;;;;14.89;35.44;99789.06;4982673;28;45392;-53
2022/04/22 03:53:05;;;;;;;;;5.00;5.00;;;;;14.88;35.15;99785.56;4982274;28;45259;-52
2022/04/22 03:55:31;;;;;;;;;6.00;5.00;;;;;14.85;35.27;99784.88;4982468;28;45872;-51
2022/04/22 03:58:12;;;;;;;;;7.50;6.25;;;;;14.81;35.31;99778.84;4982248;28;45346;-52
2022/04/22 04:00:49;;;;;;;;;5.00;5.00;;;;;14.79;35.12;99792.16;4982342;28;45222;-54
2022/04/22 04:03:19;;;;;;;;;11.00;11.00;;;;;14.75;35.20;99780.03;4982530;28;45548;-51
2022/04/22 04:05:51;;;;;;;;;10.75;9.75;;;;;14.75;35.21;99781.78;4981771;28;46099;-53
2022/04/22 04:08:18;;;;;;;;;4.50;4.50;;;;;14.72;35.37;99784.59;4981699;28;45438;-53
2022/04/22 04:16:13;;;;;;;;;4.50;4.50;;;;;14.62;35.75;99779.69;4981995;28;45295;-50
2022/04/22 04:18:38;;;;;;;;;7.00;5.75;;;;;14.61;35.53;99783.25;4981961;28;45252;-52
2022/04/22 04:23:52;;;;;;;;;8.50;5.75;;;;;14.56;35.93;99774.66;4979264;28;45438;-52
2022/04/22 04:26:21;;;;;;;;;4.75;4.75;;;;;14.53;35.93;99769.53;4973944;28;45485;-54
2022/04/22 04:28:47;;;;;;;;;5.75;5.00;;;;;14.52;35.58;99774.91;4980528;28;45810;-53
2022/04/22 04:31:13;;;;;;;;;7.25;7.25;;;;;14.49;35.73;99773.25;4981542;28;45301;-54
2022/04/22 04:33:40;;;;;;;;;6.00;6.00;;;;;14.45;36.23;99761.09;4980334;28;45684;-54
2022/04/22 04:36:08;;;;;;;;;6.00;5.00;;;;;14.43;35.70;99762.97;4981473;28;46244;-51
2022/04/22 04:38:33;;;;;;;;;7.50;6.50;;;;;14.41;35.96;99765.66;4980436;28;45449;-52
2022/04/22 04:40:59;;;;;;;;;5.00;5.00;;;;;14.37;35.94;99764.09;4981793;28;45351;-52
2022/04/22 04:43:24;;;;;;;;;5.75;5.25;;;;;14.40;36.23;99768.38;4981800;28;45303;-53
2022/04/22 04:45:50;;;;;;;;;5.50;5.50;;;;;14.27;36.03;99750.41;4980277;28;47185;-52
2022/04/22 04:48:16;;;;;;;;;6.25;6.00;;;;;14.35;35.90;99770.38;4980273;28;45339;-54
2022/04/22 04:50:46;;;;;;;;;6.50;5.00;;;;;14.32;36.36;99771.38;4980293;28;45403;-52
2022/04/22 04:53:12;;;;;;;;;6.50;4.25;;;;;14.29;35.89;99766.22;4981788;28;45253;-53
2022/04/22 04:55:38;;;;;;;;;6.00;6.00;;;;;14.28;35.80;99765.34;4980000;28;46600;-52
2022/04/22 04:58:04;;;;;;;;;5.00;4.50;;;;;14.27;36.38;99768.06;4980244;28;45402;-53
2022/04/22 05:00:29;;;;;;;;;7.50;5.75;;;;;14.24;36.07;99763.78;4981639;28;45347;-52
2022/04/22 05:02:55;;;;;;;;;5.50;4.50;;;;;14.23;36.14;99766.50;4981385;28;45397;-53
2022/04/22 05:05:21;;;;;;;;;5.00;5.00;;;;;14.21;36.07;99763.91;4981196;28;46083;-50
2022/04/22 05:07:50;;;;;;;;;7.25;7.25;;;;;14.20;36.11;99767.50;4981453;28;45227;-52
2022/04/22 05:10:18;;;;;;;;;6.50;5.25;;;;;14.20;36.32;99763.97;4980177;28;45406;-52
2022/04/22 05:12:47;;;;;;;;;5.25;5.25;;;;;14.17;36.22;99764.13;4981275;28;45467;-50
2022/04/22 05:15:13;;;;;;;;;5.00;5.00;;;;;14.14;36.29;99758.06;4979663;28;46432;-51
2022/04/22 05:17:40;;;;;;;;;5.25;5.25;;;;;14.14;36.40;99758.06;4979797;28;45320;-50
2022/04/22 05:20:06;;;;;;;;;5.00;5.00;;;;;14.14;36.52;99757.22;4981163;28;45209;-45
2022/04/22 05:22:31;;;;;;;;;5.50;5.50;;;;;14.12;36.55;99757.28;4981176;28;45356;-46
2022/04/22 05:24:57;;;;;;;;;8.75;8.25;;;;;14.13;36.71;99756.34;4969578;28;45421;-51
2022/04/22 05:27:22;;;;;;;;;5.75;5.75;;;;;14.10;36.69;99747.69;4981296;28;45361;-49
2022/04/22 05:32:37;;;;;;;;;3.25;2.00;;;;;14.11;36.75;99749.41;4980641;28;45349;-49
2022/04/22 05:35:04;;;;;;;;;4.75;4.75;;;;;14.12;36.63;99753.75;4980513;28;45465;-50
2022/04/22 05:37:53;;;;;;;;;5.75;4.25;;;;;14.12;36.70;99754.66;4980887;28;45213;-50
2022/04/22 05:40:21;;;;;;;;;9.25;5.75;;;;;14.11;36.85;99752.91;4981008;28;45341;-53
2022/04/22 05:42:48;;;;;;;;;8.00;7.00;;;;;14.11;37.10;99757.31;4979433;28;45441;-50
2022/04/22 05:45:14;;;;;;;;;6.75;6.25;;;;;14.11;37.09;99755.56;4979431;28;48562;-52
2022/04/22 05:47:41;;;;;;;;;7.50;6.00;;;;;14.10;37.08;99756.47;4958540;28;45289;-62
2022/04/22 05:50:08;;;;;;;;;7.75;7.00;;;;;14.11;36.93;99752.03;4974052;28;45363;-51
2022/04/22 05:52:35;;;;;;;;;6.50;6.50;;;;;14.10;37.15;99758.25;4983813;28;45306;-58
2022/04/22 05:55:02;;;;;;;;;5.25;5.25;;;;;14.10;37.33;99753.84;4980160;28;46455;-55
2022/04/22 05:57:31;;;;;;;;;7.25;6.00;;;;;14.10;36.90;99766.16;4987974;28;45350;-58
2022/04/22 05:59:58;;;;;;;;;7.75;7.50;;;;;14.09;37.31;99770.63;4980290;28;45405;-58
2022/04/22 06:02:23;;;;;;;;;6.25;6.25;;;;;14.09;37.17;99761.84;4979843;28;45523;-60
2022/04/22 06:04:49;;;;;;;;;8.00;7.75;;;;;14.05;37.00;99769.03;4980417;28;46367;-58
2022/04/22 06:07:14;;;;;;;;;10.75;9.25;;;;;14.08;37.14;99766.25;4978846;28;45424;-58
2022/04/22 06:12:23;;;;;;;;;8.50;8.50;;;;;14.11;37.18;99773.19;4980291;28;45390;-57
2022/04/22 06:14:49;;;;;;;;;4.00;4.00;;;;;14.00;37.09;99754.31;4980285;28;46298;-56
2022/04/22 06:17:14;;;;;;;;;10.00;6.75;;;;;14.11;37.31;99775.81;4980011;28;45242;-58
2022/04/22 06:19:39;;;;;;;;;6.25;6.25;;;;;14.10;37.13;99758.25;4980311;28;45310;-57
2022/04/22 06:22:05;;;;;;;;;8.75;8.00;;;;;14.11;37.24;99765.25;4980443;28;45552;-58
2022/04/22 06:24:30;;;;;;;;;7.25;7.25;;;;;14.13;37.56;99766.06;4974881;28;45309;-58
2022/04/22 06:26:56;;;;;;;;;8.75;7.50;;;;;14.13;37.41;99761.63;4978692;28;45610;-58
2022/04/22 06:29:22;;;;;;;;;9.00;7.25;;;;;14.11;37.88;99766.13;4980198;28;45461;-59
2022/04/22 06:31:47;;;;;;;;;8.00;8.00;;;;;14.12;37.29;99752.00;4980238;28;45248;-58
2022/04/22 06:34:13;;;;;;;;;7.25;7.25;;;;;14.15;37.29;99764.22;4982300;28;47051;-56
2022/04/22 06:36:38;;;;;;;;;8.25;6.75;;;;;14.16;37.74;99755.34;4982437;28;45334;-56
2022/04/22 06:39:04;;;;;;;;;9.00;9.00;;;;;14.19;37.74;99754.34;4983555;28;45463;-55
2022/04/22 06:46:58;;;;;;;;;11.50;10.50;;;;;14.20;37.91;99756.06;4982412;28;45352;-56
2022/04/22 06:49:24;;;;;;;;;7.50;7.00;;;;;14.23;37.61;99754.13;4983424;28;45311;-55
2022/04/22 06:51:52;;;;;;;;;11.00;11.00;;;;;14.23;37.98;99753.28;4983240;28;45549;-56
2022/04/22 06:54:18;;;;;;;;;9.75;9.50;;;;;14.26;38.04;99756.66;4981848;28;48316;-56
2022/04/22 06:56:45;;;;;;;;;16.25;11.75;;;;;14.26;37.94;99754.03;4983017;28;45328;-54
2022/04/22 06:59:11;;;;;;;;;8.25;8.25;;;;;14.32;37.94;99752.03;4983358;28;45402;-56
2022/04/22 07:01:36;;;;;;;;;10.00;10.00;;;;;14.32;37.77;99755.50;4981777;28;45378;-55
2022/04/22 07:04:03;;;;;;;;;8.75;7.75;;;;;14.35;37.76;99762.44;4982885;28;46919;-56
2022/04/22 07:06:29;;;;;;;;;10.50;8.25;;;;;14.36;38.02;99761.50;4982984;28;45240;-56
2022/04/22 07:08:55;;;;;;;;;9.00;9.00;;;;;14.40;38.08;99757.81;4983083;28;45240;-56
2022/04/22 07:11:26;;;;;;;;;10.75;10.50;;;;;14.42;38.01;99758.59;4983118;28;45301;-56
2022/04/22 07:13:53;;;;;;;;;10.75;10.00;;;;;14.43;38.12;99760.31;4982911;28;45260;-56
2022/04/22 07:16:20;;;;;;;;;10.50;10.50;;;;;14.46;38.43;99754.88;4982993;28;45259;-56
2022/04/22 07:18:45;;;;;;;;;10.75;9.25;;;;;14.47;38.03;99748.66;4982973;28;45270;-55
2022/04/22 07:21:11;;;;;;;;;7.25;7.25;;;;;14.50;38.08;99761.72;4982865;28;45413;-56
2022/04/22 07:23:37;;;;;;;;;10.00;10.00;;;;;14.53;37.86;99752.81;4981442;28;47585;-57
2022/04/22 07:26:09;;;;;;;;;9.50;7.00;;;;;14.52;38.16;99749.31;4982805;28;45408;-56
2022/04/22 07:28:34;;;;;;;;;7.75;7.75;;;;;14.59;38.07;99757.81;4981450;28;45401;-56
2022/04/22 07:31:01;;;;;;;;;11.25;10.50;;;;;14.61;37.87;99754.16;4983528;28;45440;-57
2022/04/22 07:33:27;;;;;;;;;9.75;9.75;;;;;14.61;38.14;99756.81;4983683;28;48363;-55
2022/04/22 07:35:52;;;;;;;;;11.50;10.50;;;;;14.67;37.86;99754.84;4990056;28;45263;-56
2022/04/22 07:38:18;;;;;;;;;12.00;11.00;;;;;14.69;37.97;99752.97;4984349;28;45327;-55
2022/04/22 07:40:48;;;;;;;;;9.75;9.75;;;;;14.70;38.03;99742.31;4987640;28;45441;-56
2022/04/22 07:48:43;;;;;;;;;9.75;9.75;;;;;14.80;38.60;99740.09;4982767;28;45236;-56
2022/04/22 07:51:09;;;;;;;;;10.75;10.25;;;;;14.83;38.10;99737.34;4982014;28;45544;-56
2022/04/22 07:53:35;;;;;;;;;13.75;11.25;;;;;14.85;38.61;99731.97;4982259;28;46115;-56
2022/04/22 07:56:04;;;;;;;;;9.25;9.25;;;;;14.89;38.30;99738.81;4980971;28;45332;-56
2022/04/22 07:58:32;;;;;;;;;11.00;9.00;;;;;14.90;38.48;99732.59;4981220;28;45300;-55
2022/04/22 08:00:58;;;;;;;;;10.50;9.50;;;;;14.97;38.38;99741.09;4982119;28;45225;-55
2022/04/22 08:03:23;;;;;;;;;10.00;10.00;;;;;14.99;38.02;99739.22;4982309;28;45184;-55
2022/04/22 08:05:48;;;;;;;;;9.50;8.00;;;;;15.05;38.57;99744.22;4981836;28;45248;-56
2022/04/22 08:08:14;;;;;;;;;12.00;10.00;;;;;15.07;38.47;99743.22;4982435;28;45234;-56
2022/04/22 08:10:39;;;;;;;;;9.50;9.50;;;;;15.10;38.29;99737.75;4981945;28;45412;-57
2022/04/22 08:13:05;;;;;;;;;6.50;6.50;;;;;15.18;38.22;99752.41;4980819;28;47060;-56
2022/04/22 08:15:33;;;;;;;;;10.25;10.00;;;;;15.22;38.18;99746.91;4982112;28;45243;-56
2022/04/22 08:17:58;;;;;;;;;11.75;10.75;;;;;15.24;38.68;99744.19;4982145;28;45412;-57
2022/04/22 08:20:23;;;;;;;;;11.50;10.50;;;;;15.32;38.63;99735.84;4980199;28;45997;-56
2022/04/22 08:22:49;;;;;;;;;12.25;11.00;;;;;15.36;38.61;99734.78;4981922;28;45313;-57
2022/04/22 08:25:15;;;;;;;;;11.25;10.00;;;;;15.40;38.58;99726.59;4971111;28;45395;-56
2022/04/22 08:27:40;;;;;;;;;10.75;7.75;;;;;15.47;38.38;99727.16;4982022;28;45480;-55
2022/04/22 08:30:08;;;;;;;;;11.00;11.00;;;;;15.52;38.40;99724.25;4981584;28;45584;-56
2022/04/22 08:32:33;;;;;;;;;11.00;9.75;;;;;15.56;38.69;99720.53;4980129;28;47359;-56
2022/04/22 08:34:59;;;;;;;;;12.25;11.50;;;;;15.62;38.38;99714.06;4979946;28;45311;-55
2022/04/22 08:37:24;;;;;;;;;12.25;11.50;;;;;15.65;38.64;99713.91;4981870;28;45311;-55
2022/04/22 08:39:50;;;;;;;;;11.00;9.75;;;;;15.74;37.94;99713.44;4981510;28;45304;-56
2022/04/22 08:42:16;;;;;;;;;11.00;10.00;;;;;15.80;38.32;99710.47;4981570;28;46372;-56
2022/04/22 08:44:41;;;;;;;;;8.75;8.75;;;;;15.87;38.42;99714.53;4981442;28;45279;-56
2022/04/22 08:49:58;;;;;;;;;8.25;8.25;;;;;16.02;38.59;99709.34;4981330;28;45371;-57
2022/04/22 08:52:26;;;;;;;;;11.00;9.75;;;;;16.08;38.47;99704.56;4980859;28;46135;-56
2022/04/22 08:54:54;;;;;;;;;9.25;7.75;;;;;16.16;38.09;99696.25;4980184;28;46160;-57
2022/04/22 08:57:23;;;;;;;;;9.75;9.75;;;;;16.24;38.32;99703.78;4980173;28;45392;-56
2022/04/22 08:59:49;;;;;;;;;8.50;8.50;;;;;16.29;38.04;99695.53;4981464;28;45285;-56
2022/04/22 09:02:18;;;;;;;;;8.50;7.25;;;;;16.37;38.09;99698.66;4981246;28;45453;-56
2022/04/22 09:04:44;;;;;;;;;8.00;8.00;;;;;16.37;38.26;99696.00;4981071;28;45373;-57
2022/04/22 09:07:13;;;;;;;;;11.00;9.00;;;;;16.52;37.95;99704.91;4981284;28;45393;-56
2022/04/22 09:09:40;;;;;;;;;5.50;5.50;;;;;16.60;38.11;99696.53;4981048;28;45548;-56
2022/04/22 09:12:11;;;;;;;;;7.00;7.00;;;;;16.67;38.00;99693.44;4979928;28;47320;-56
2022/04/22 09:14:44;;;;;;;;;9.25;8.00;;;;;16.79;37.93;99699.88;4981252;28;45483;-55
2022/04/22 09:17:11;;;;;;;;;6.50;6.50;;;;;16.84;37.91;99692.50;4981092;28;45317;-56
2022/04/22 09:19:36;;;;;;;;;12.00;9.00;;;;;16.97;37.97;99697.97;4980864;28;45427;-56
2022/04/22 09:22:02;;;;;;;;;10.00;10.00;;;;;17.00;37.65;99683.69;4980850;28;45335;-56
2022/04/22 09:24:27;;;;;;;;;7.25;7.25;;;;;17.13;37.54;99691.78;4973326;28;45305;-56
2022/04/22 09:27:06;;;;;;;;;7.25;7.25;;;;;17.22;37.43;99694.75;4979967;28;45386;-56
2022/04/22 09:29:54;;;;;;;;;8.75;8.75;;;;;17.32;37.30;99688.88;4980946;28;45463;-57
2022/04/22 09:32:34;;;;;;;;;9.00;7.75;;;;;17.43;37.21;99682.97;4980706;28;45555;-55
2022/04/22 09:35:12;;;;;;;;;7.25;6.50;;;;;17.54;37.22;99685.81;4980456;28;45248;-57
2022/04/22 09:43:37;;;;;;;;;7.25;6.75;;;;;17.91;37.06;99691.56;4980787;28;45230;-56
2022/04/22 09:46:03;;;;;;;;;9.50;8.00;;;;;18.01;37.05;99683.91;4979380;28;45382;-56
2022/04/22 09:48:44;;;;;;;;;8.25;7.25;;;;;18.16;36.94;99684.75;4980931;28;45278;-57
2022/04/22 09:51:27;;;;;;;;;8.00;7.00;;;;;18.29;36.73;99679.53;4980202;28;45176;-56
2022/04/22 09:54:08;;;;;;;;;7.50;7.50;;;;;18.42;36.66;99685.75;4980447;28;47071;-55
2022/04/22 09:56:33;;;;;;;;;6.25;6.25;;;;;18.54;36.73;99675.28;4980465;28;45416;-55
2022/04/22 09:59:19;;;;;;;;;7.00;7.00;;;;;18.63;36.43;99672.91;4980588;28;45326;-53
2022/04/22 10:01:45;;;;;;;;;6.50;6.50;;;;;18.76;36.41;99672.09;4980735;28;45410;-55
2022/04/22 10:04:11;;;;;;;;;6.00;6.00;;;;;18.86;36.15;99672.34;4979516;28;46219;-55
2022/04/22 10:06:38;;;;;;;;;6.00;6.00;;;;;18.97;36.18;99662.72;4978778;28;45600;-54
2022/04/22 10:09:03;;;;;;;;;5.00;5.00;;;;;19.11;36.06;99672.47;4978995;28;45428;-55
2022/04/22 10:11:29;;;;;;;;;9.00;7.50;;;;;19.23;35.67;99669.91;4980524;28;45147;-54
2022/04/22 10:13:56;;;;;;;;;7.00;7.00;;;;;19.34;35.89;99656.72;4980276;28;46256;-56
2022/04/22 10:16:22;;;;;;;;;8.50;7.25;;;;;19.46;35.36;99663.06;4978962;28;45452;-57
2022/04/22 10:18:48;;;;;;;;;7.25;6.00;;;;;19.58;35.44;99662.19;4980372;28;45388;-57
2022/04/22 10:21:14;;;;;;;;;7.50;7.50;;;;;19.69;35.79;99656.13;4980172;28;45353;-56
2022/04/22 10:23:40;;;;;;;;;7.00;7.00;;;;;19.86;35.67;99649.66;4978849;28;46457;-56
2022/04/22 10:26:05;;;;;;;;;6.75;5.50;;;;;20.02;34.93;99665.41;4980254;28;45399;-56
2022/04/22 10:28:31;;;;;;;;;6.25;6.25;;;;;20.19;35.49;99660.69;4979113;28;45452;-55
2022/04/22 10:31:00;;;;;;;;;5.50;5.50;;;;;20.43;35.54;99658.09;4979721;28;45523;-54
2022/04/22 10:33:39;;;;;;;;;5.75;5.00;;;;;20.64;35.08;99645.00;4979784;28;46113;-55
2022/04/22 10:36:05;;;;;;;;;4.75;4.00;;;;;20.87;34.83;99640.63;4978645;28;45347;-55
2022/04/22 10:38:38;;;;;;;;;5.25;5.25;;;;;21.08;34.47;99651.53;4980481;28;45323;-55
2022/04/22 10:41:12;;;;;;;;;5.00;5.00;;;;;21.24;34.94;99651.22;4979974;28;45338;-54
2022/04/22 10:43:39;;;;;;;;;5.25;5.25;;;;;21.51;34.22;99658.06;4979975;28;45426;-55
2022/04/22 10:49:11;;;;;;;;;5.50;4.25;;;;;22.05;34.54;99647.72;4980307;28;45223;-58
2022/04/22 10:52:11;;;;;;;;;3.50;3.50;;;;;22.34;33.69;99641.81;4979822;28;45487;-56
2022/04/22 10:54:52;;;;;;;;;5.00;5.00;;;;;22.67;34.09;99632.88;4980062;28;45486;-56
2022/04/22 10:57:19;;;;;;;;;6.75;5.50;;;;;22.99;34.14;99640.09;4978520;28;45908;-56
2022/04/22 10:59:45;;;;;;;;;7.00;7.00;;;;;23.40;33.89;99650.16;4980017;28;45241;-55
2022/04/22 11:02:28;;;;;;;;;5.75;5.75;;;;;23.80;33.57;99630.63;4979751;28;45473;-55
2022/04/22 11:05:18;;;;;;;;;4.75;4.50;;;;;24.30;33.84;99630.69;4979636;28;46236;-54
2022/04/22 11:07:50;;;;;;;;;3.50;3.50;;;;;24.79;33.47;99627.22;4979797;28;45357;-56
2022/04/22 11:10:15;;;;;;;;;4.75;4.25;;;;;25.28;33.16;99622.69;4979849;28;45298;-55
2022/04/22 11:12:57;;;;;;;;;4.00;4.00;;;;;25.82;33.05;99632.06;4979849;28;45213;-56
2022/04/22 11:15:50;;;;;;;;;4.25;4.00;;;;;26.46;33.21;99632.19;4979766;28;46953;-56
2022/04/22 11:18:17;;;;;;;;;5.00;4.00;;;;;27.00;32.59;99602.59;4983014;28;45350;-56
2022/04/22 11:20:58;;;;;;;;;7.50;4.75;;;;;27.61;32.28;99622.44;4981795;28;45371;-56
2022/04/22 11:23:23;;;;;;;;;5.25;5.00;;;;;28.14;32.22;99617.81;4982925;28;45514;-57
2022/04/22 11:25:51;;;;;;;;;3.25;2.00;;;;;28.65;32.07;99625.03;4973722;28;47266;-57
2022/04/22 11:28:19;;;;;;;;;4.25;4.25;;;;;29.14;32.00;99619.69;4983002;28;45338;-55
2022/04/22 11:30:44;;;;;;;;;5.25;5.25;;;;;29.68;31.56;99631.81;4982893;28;45236;-56
2022/04/22 11:33:30;;;;;;;;;4.50;3.50;;;;;30.28;30.83;99624.19;4982458;28;45477;-56
2022/04/22 11:35:58;;;;;;;;;6.00;4.75;;;;;30.78;30.83;99620.16;4981316;28;47136;-57
2022/04/22 11:38:25;;;;;;;;;6.75;6.00;;;;;31.30;30.88;99608.75;4982827;28;45444;-57
2022/04/22 11:40:50;;;;;;;;;1.00;1.00;;;;;31.81;30.41;99617.06;4982627;28;45483;-57
2022/04/22 11:43:21;;;;;;;;;3.00;3.00;;;;;32.32;30.41;99612.72;4982896;28;45317;-57
2022/04/22 11:45:48;;;;;;;;;5.50;4.00;;;;;32.80;29.75;99623.06;4981365;28;46264;-57
2022/04/22 11:48:24;;;;;;;;;4.50;4.50;;;;;33.25;29.73;99617.41;4982804;28;45340;-57
2022/04/22 11:50:50;;;;;;;;;3.75;3.00;;;;;33.64;29.08;99618.75;4982372;28;45431;-57
2022/04/22 11:53:20;;;;;;;;;2.50;2.50;;;;;33.99;28.86;99624.22;4982622;28;45413;-57
2022/04/22 11:55:48;;;;;;;;;2.75;2.75;;;;;34.38;28.68;99625.44;4980909;28;47156;-57
2022/04/22 11:58:24;;;;;;;;;4.00;4.00;;;;;34.74;28.28;99612.50;4982489;28;45391;-57
2022/04/22 12:06:20;;;;;;;;;4.00;4.00;;;;;35.71;27.77;99599.28;4982088;28;45340;-58
2022/04/22 12:09:06;;;;;;;;;7.25;6.25;;;;;36.05;26.91;99610.09;4982351;28;45365;-57
2022/04/22 12:11:42;;;;;;;;;1.50;0.00;;;;;36.33;26.87;99600.72;4982406;28;45318;-57
2022/04/22 12:14:09;;;;;;;;;3.00;3.00;;;;;36.60;26.55;99613.22;4982254;28;45235;-57
2022/04/22 12:16:34;;;;;;;;;3.25;3.25;;;;;36.83;26.15;99586.31;4982117;28;45472;-58
2022/04/22 12:19:00;;;;;;;;;3.25;3.25;;;;;37.15;25.93;99589.88;4982100;28;45283;-57
2022/04/22 12:21:26;;;;;;;;;2.50;2.00;;;;;37.43;26.34;99598.69;4981903;28;45291;-57
2022/04/22 12:24:00;;;;;;;;;3.00;2.25;;;;;37.69;25.81;99595.66;4982190;28;45554;-58
2022/04/22 12:26:27;;;;;;;;;4.00;4.00;;;;;37.93;25.38;99595.84;4981874;28;46319;-57